sensor_id;sensor_type;location;lat;lon;timestamp;P1;durP1;ratioP1;P2;durP2;ratioP2
53652;SDS011;39553;52.954;5.932;2023-01-26T00:00:57;115.18;;;33.10;;
53652;SDS011;39553;52.954;5.932;2023-01-26T00:03:24;100.28;;;29.73;;
53652;SDS011;39553;52.954;5.932;2023-01-26T00:05:50;102.05;;;31.42;;
53652;SDS011;39553;52.954;5.932;2023-01-26T00:08:16;77.50;;;25.67;;
53652;SDS011;39553;52.954;5.932;2023-01-26T00:10:42;93.93;;;31.58;;
53652;SDS011;39553;52.954;5.932;2023-01-26T00:13:15;83.78;;;29.27;;
53652;SDS011;39553;52.954;5.932;2023-01-26T00:15:43;94.47;;;27.98;;
53652;SDS011;39553;52.954;5.932;2023-01-26T00:18:10;105.13;;;32.85;;
53652;SDS011;39553;52.954;5.932;2023-01-26T00:20:35;107.25;;;33.70;;
53652;SDS011;39553;52.954;5.932;2023-01-26T00:23:01;107.05;;;33.97;;
53652;SDS011;39553;52.954;5.932;2023-01-26T00:25:27;106.70;;;32.17;;
53652;SDS011;39553;52.954;5.932;2023-01-26T00:27:53;97.10;;;29.50;;
53652;SDS011;39553;52.954;5.932;2023-01-26T00:30:19;108.50;;;32.90;;
53652;SDS011;39553;52.954;5.932;2023-01-26T00:32:45;103.10;;;33.35;;
53652;SDS011;39553;52.954;5.932;2023-01-26T00:35:11;104.50;;;29.40;;
53652;SDS011;39553;52.954;5.932;2023-01-26T00:37:37;100.90;;;32.33;;
53652;SDS011;39553;52.954;5.932;2023-01-26T00:40:05;85.00;;;27.25;;
53652;SDS011;39553;52.954;5.932;2023-01-26T00:42:30;102.25;;;33.72;;
53652;SDS011;39553;52.954;5.932;2023-01-26T00:44:56;76.75;;;26.27;;
53652;SDS011;39553;52.954;5.932;2023-01-26T00:47:22;95.63;;;30.35;;
53652;SDS011;39553;52.954;5.932;2023-01-26T00:49:48;89.95;;;27.88;;
53652;SDS011;39553;52.954;5.932;2023-01-26T00:52:13;82.78;;;27.98;;
53652;SDS011;39553;52.954;5.932;2023-01-26T00:54:39;82.95;;;27.92;;
53652;SDS011;39553;52.954;5.932;2023-01-26T00:57:05;80.35;;;28.38;;
53652;SDS011;39553;52.954;5.932;2023-01-26T00:59:30;85.95;;;27.30;;
53652;SDS011;39553;52.954;5.932;2023-01-26T01:02:00;83.93;;;27.65;;
53652;SDS011;39553;52.954;5.932;2023-01-26T01:04:27;76.07;;;26.45;;
53652;SDS011;39553;52.954;5.932;2023-01-26T01:06:57;101.78;;;26.73;;
53652;SDS011;39553;52.954;5.932;2023-01-26T01:09:23;90.75;;;28.55;;
53652;SDS011;39553;52.954;5.932;2023-01-26T01:11:49;97.13;;;28.10;;
53652;SDS011;39553;52.954;5.932;2023-01-26T01:14:14;72.43;;;24.92;;
53652;SDS011;39553;52.954;5.932;2023-01-26T01:16:41;85.97;;;29.85;;
53652;SDS011;39553;52.954;5.932;2023-01-26T01:19:07;63.28;;;22.73;;
53652;SDS011;39553;52.954;5.932;2023-01-26T01:21:36;85.20;;;28.98;;
53652;SDS011;39553;52.954;5.932;2023-01-26T01:24:02;71.28;;;23.45;;
53652;SDS011;39553;52.954;5.932;2023-01-26T01:26:28;82.00;;;28.63;;
53652;SDS011;39553;52.954;5.932;2023-01-26T01:28:54;92.38;;;27.13;;
53652;SDS011;39553;52.954;5.932;2023-01-26T01:31:21;96.18;;;28.20;;
53652;SDS011;39553;52.954;5.932;2023-01-26T01:33:48;91.00;;;29.13;;
53652;SDS011;39553;52.954;5.932;2023-01-26T01:36:14;101.72;;;30.00;;
53652;SDS011;39553;52.954;5.932;2023-01-26T01:38:41;92.28;;;30.52;;
53652;SDS011;39553;52.954;5.932;2023-01-26T01:41:08;92.70;;;26.50;;
53652;SDS011;39553;52.954;5.932;2023-01-26T01:43:34;98.22;;;27.70;;
53652;SDS011;39553;52.954;5.932;2023-01-26T01:46:02;82.90;;;26.10;;
53652;SDS011;39553;52.954;5.932;2023-01-26T01:48:53;98.00;;;28.52;;
53652;SDS011;39553;52.954;5.932;2023-01-26T01:51:36;88.45;;;28.05;;
53652;SDS011;39553;52.954;5.932;2023-01-26T01:54:08;82.13;;;27.73;;
53652;SDS011;39553;52.954;5.932;2023-01-26T01:56:37;100.85;;;32.40;;
53652;SDS011;39553;52.954;5.932;2023-01-26T01:59:05;104.22;;;30.52;;
53652;SDS011;39553;52.954;5.932;2023-01-26T02:01:34;92.18;;;27.85;;
53652;SDS011;39553;52.954;5.932;2023-01-26T02:04:00;90.35;;;27.70;;
53652;SDS011;39553;52.954;5.932;2023-01-26T02:06:31;104.40;;;31.30;;
53652;SDS011;39553;52.954;5.932;2023-01-26T02:09:00;92.60;;;29.50;;
53652;SDS011;39553;52.954;5.932;2023-01-26T02:13:55;95.00;;;30.85;;
53652;SDS011;39553;52.954;5.932;2023-01-26T02:16:22;99.03;;;29.90;;
53652;SDS011;39553;52.954;5.932;2023-01-26T02:18:48;95.18;;;29.95;;
53652;SDS011;39553;52.954;5.932;2023-01-26T02:21:15;107.88;;;32.85;;
53652;SDS011;39553;52.954;5.932;2023-01-26T02:23:57;115.03;;;33.40;;
53652;SDS011;39553;52.954;5.932;2023-01-26T02:26:48;106.45;;;32.05;;
53652;SDS011;39553;52.954;5.932;2023-01-26T02:29:13;98.63;;;29.38;;
53652;SDS011;39553;52.954;5.932;2023-01-26T02:31:39;104.20;;;32.20;;
53652;SDS011;39553;52.954;5.932;2023-01-26T02:34:05;103.45;;;32.42;;
53652;SDS011;39553;52.954;5.932;2023-01-26T02:36:31;113.15;;;33.28;;
53652;SDS011;39553;52.954;5.932;2023-01-26T02:39:18;116.15;;;34.95;;
53652;SDS011;39553;52.954;5.932;2023-01-26T02:42:02;84.32;;;29.80;;
53652;SDS011;39553;52.954;5.932;2023-01-26T02:44:46;112.07;;;34.75;;
53652;SDS011;39553;52.954;5.932;2023-01-26T02:47:16;102.40;;;30.23;;
53652;SDS011;39553;52.954;5.932;2023-01-26T02:49:43;106.03;;;35.10;;
53652;SDS011;39553;52.954;5.932;2023-01-26T02:52:16;104.25;;;32.88;;
53652;SDS011;39553;52.954;5.932;2023-01-26T02:54:46;113.82;;;34.97;;
53652;SDS011;39553;52.954;5.932;2023-01-26T02:57:30;104.85;;;32.20;;
53652;SDS011;39553;52.954;5.932;2023-01-26T02:59:58;114.28;;;33.35;;
53652;SDS011;39553;52.954;5.932;2023-01-26T03:02:24;116.90;;;33.70;;
53652;SDS011;39553;52.954;5.932;2023-01-26T03:04:49;117.80;;;34.92;;
53652;SDS011;39553;52.954;5.932;2023-01-26T03:07:15;110.68;;;37.03;;
53652;SDS011;39553;52.954;5.932;2023-01-26T03:09:41;120.53;;;35.95;;
53652;SDS011;39553;52.954;5.932;2023-01-26T03:12:06;109.07;;;33.38;;
53652;SDS011;39553;52.954;5.932;2023-01-26T03:14:32;112.68;;;34.13;;
53652;SDS011;39553;52.954;5.932;2023-01-26T03:16:58;98.75;;;32.05;;
53652;SDS011;39553;52.954;5.932;2023-01-26T03:19:24;112.15;;;33.15;;
53652;SDS011;39553;52.954;5.932;2023-01-26T03:22:09;112.25;;;34.45;;
53652;SDS011;39553;52.954;5.932;2023-01-26T03:24:53;112.68;;;35.10;;
53652;SDS011;39553;52.954;5.932;2023-01-26T03:27:40;115.38;;;35.30;;
53652;SDS011;39553;52.954;5.932;2023-01-26T03:30:11;123.32;;;36.92;;
53652;SDS011;39553;52.954;5.932;2023-01-26T03:32:38;110.68;;;36.42;;
53652;SDS011;39553;52.954;5.932;2023-01-26T03:35:04;106.93;;;32.35;;
53652;SDS011;39553;52.954;5.932;2023-01-26T03:37:31;111.88;;;34.72;;
53652;SDS011;39553;52.954;5.932;2023-01-26T03:40:04;99.53;;;30.75;;
53652;SDS011;39553;52.954;5.932;2023-01-26T03:42:49;112.93;;;32.63;;
53652;SDS011;39553;52.954;5.932;2023-01-26T03:45:33;120.83;;;34.87;;
53652;SDS011;39553;52.954;5.932;2023-01-26T03:48:17;85.97;;;27.83;;
53652;SDS011;39553;52.954;5.932;2023-01-26T03:51:01;103.53;;;30.77;;
53652;SDS011;39553;52.954;5.932;2023-01-26T03:53:45;112.35;;;33.05;;
53652;SDS011;39553;52.954;5.932;2023-01-26T03:56:29;105.95;;;30.88;;
53652;SDS011;39553;52.954;5.932;2023-01-26T03:58:59;102.57;;;27.83;;
53652;SDS011;39553;52.954;5.932;2023-01-26T04:01:36;101.07;;;30.67;;
53652;SDS011;39553;52.954;5.932;2023-01-26T04:04:03;120.22;;;34.80;;
53652;SDS011;39553;52.954;5.932;2023-01-26T04:06:49;126.70;;;34.08;;
53652;SDS011;39553;52.954;5.932;2023-01-26T04:09:34;92.15;;;31.27;;
53652;SDS011;39553;52.954;5.932;2023-01-26T04:12:01;106.03;;;34.25;;
53652;SDS011;39553;52.954;5.932;2023-01-26T04:14:28;109.82;;;33.72;;
53652;SDS011;39553;52.954;5.932;2023-01-26T04:17:12;126.13;;;38.20;;
53652;SDS011;39553;52.954;5.932;2023-01-26T04:19:57;113.25;;;34.60;;
53652;SDS011;39553;52.954;5.932;2023-01-26T04:22:41;129.02;;;38.00;;
53652;SDS011;39553;52.954;5.932;2023-01-26T04:25:14;105.70;;;32.85;;
53652;SDS011;39553;52.954;5.932;2023-01-26T04:27:41;118.53;;;33.22;;
53652;SDS011;39553;52.954;5.932;2023-01-26T04:30:08;107.03;;;32.42;;
53652;SDS011;39553;52.954;5.932;2023-01-26T04:32:36;97.68;;;32.42;;
53652;SDS011;39553;52.954;5.932;2023-01-26T04:35:02;98.60;;;30.65;;
53652;SDS011;39553;52.954;5.932;2023-01-26T04:37:29;105.38;;;32.83;;
53652;SDS011;39553;52.954;5.932;2023-01-26T04:39:54;101.68;;;32.33;;
53652;SDS011;39553;52.954;5.932;2023-01-26T04:42:20;97.28;;;31.63;;
53652;SDS011;39553;52.954;5.932;2023-01-26T04:44:48;105.30;;;34.42;;
53652;SDS011;39553;52.954;5.932;2023-01-26T04:47:15;106.60;;;34.28;;
53652;SDS011;39553;52.954;5.932;2023-01-26T04:49:41;84.82;;;28.27;;
53652;SDS011;39553;52.954;5.932;2023-01-26T04:52:07;86.78;;;28.95;;
53652;SDS011;39553;52.954;5.932;2023-01-26T04:54:32;104.80;;;31.85;;
53652;SDS011;39553;52.954;5.932;2023-01-26T04:56:58;98.70;;;30.77;;
53652;SDS011;39553;52.954;5.932;2023-01-26T04:59:24;89.32;;;29.38;;
53652;SDS011;39553;52.954;5.932;2023-01-26T05:01:49;105.85;;;32.45;;
53652;SDS011;39553;52.954;5.932;2023-01-26T05:04:15;110.75;;;32.92;;
53652;SDS011;39553;52.954;5.932;2023-01-26T05:06:41;102.22;;;34.58;;
53652;SDS011;39553;52.954;5.932;2023-01-26T05:09:08;119.57;;;37.25;;
53652;SDS011;39553;52.954;5.932;2023-01-26T05:11:34;114.57;;;33.75;;
53652;SDS011;39553;52.954;5.932;2023-01-26T05:14:00;111.75;;;33.20;;
53652;SDS011;39553;52.954;5.932;2023-01-26T05:16:26;128.02;;;34.90;;
53652;SDS011;39553;52.954;5.932;2023-01-26T05:18:52;97.13;;;31.58;;
53652;SDS011;39553;52.954;5.932;2023-01-26T05:21:18;126.00;;;36.45;;
53652;SDS011;39553;52.954;5.932;2023-01-26T05:23:44;134.48;;;37.90;;
53652;SDS011;39553;52.954;5.932;2023-01-26T05:26:10;101.32;;;31.10;;
53652;SDS011;39553;52.954;5.932;2023-01-26T05:28:35;115.57;;;34.25;;
53652;SDS011;39553;52.954;5.932;2023-01-26T05:31:02;130.00;;;36.80;;
53652;SDS011;39553;52.954;5.932;2023-01-26T05:33:28;118.45;;;34.58;;
53652;SDS011;39553;52.954;5.932;2023-01-26T05:35:54;125.13;;;36.25;;
53652;SDS011;39553;52.954;5.932;2023-01-26T05:38:20;102.90;;;32.88;;
53652;SDS011;39553;52.954;5.932;2023-01-26T05:40:45;93.28;;;32.28;;
53652;SDS011;39553;52.954;5.932;2023-01-26T05:43:11;95.07;;;31.00;;
53652;SDS011;39553;52.954;5.932;2023-01-26T05:45:40;132.13;;;36.33;;
53652;SDS011;39553;52.954;5.932;2023-01-26T05:48:06;117.15;;;37.25;;
53652;SDS011;39553;52.954;5.932;2023-01-26T05:50:32;95.68;;;32.85;;
53652;SDS011;39553;52.954;5.932;2023-01-26T05:52:57;109.78;;;35.45;;
53652;SDS011;39553;52.954;5.932;2023-01-26T05:55:25;114.50;;;33.85;;
53652;SDS011;39553;52.954;5.932;2023-01-26T05:57:51;110.13;;;35.03;;
53652;SDS011;39553;52.954;5.932;2023-01-26T06:00:17;108.68;;;34.55;;
53652;SDS011;39553;52.954;5.932;2023-01-26T06:02:43;113.97;;;34.28;;
53652;SDS011;39553;52.954;5.932;2023-01-26T06:05:08;96.38;;;31.42;;
53652;SDS011;39553;52.954;5.932;2023-01-26T06:07:35;118.13;;;35.15;;
53652;SDS011;39553;52.954;5.932;2023-01-26T06:10:00;125.55;;;34.00;;
53652;SDS011;39553;52.954;5.932;2023-01-26T06:12:26;102.05;;;31.63;;
53652;SDS011;39553;52.954;5.932;2023-01-26T06:14:56;99.93;;;30.60;;
53652;SDS011;39553;52.954;5.932;2023-01-26T06:17:22;95.50;;;31.45;;
53652;SDS011;39553;52.954;5.932;2023-01-26T06:19:48;103.25;;;31.73;;
53652;SDS011;39553;52.954;5.932;2023-01-26T06:22:13;104.45;;;34.22;;
53652;SDS011;39553;52.954;5.932;2023-01-26T06:24:39;118.97;;;33.85;;
53652;SDS011;39553;52.954;5.932;2023-01-26T06:27:05;124.53;;;34.28;;
53652;SDS011;39553;52.954;5.932;2023-01-26T06:29:35;112.50;;;33.75;;
53652;SDS011;39553;52.954;5.932;2023-01-26T06:32:01;105.97;;;30.73;;
53652;SDS011;39553;52.954;5.932;2023-01-26T06:34:27;96.60;;;29.60;;
53652;SDS011;39553;52.954;5.932;2023-01-26T06:36:53;112.78;;;31.38;;
53652;SDS011;39553;52.954;5.932;2023-01-26T06:39:18;90.80;;;30.38;;
53652;SDS011;39553;52.954;5.932;2023-01-26T06:41:44;104.63;;;33.67;;
53652;SDS011;39553;52.954;5.932;2023-01-26T06:44:10;91.30;;;31.60;;
53652;SDS011;39553;52.954;5.932;2023-01-26T06:46:36;97.15;;;29.63;;
53652;SDS011;39553;52.954;5.932;2023-01-26T06:49:13;98.45;;;30.27;;
53652;SDS011;39553;52.954;5.932;2023-01-26T06:51:51;98.47;;;31.88;;
53652;SDS011;39553;52.954;5.932;2023-01-26T06:54:22;99.18;;;28.38;;
53652;SDS011;39553;52.954;5.932;2023-01-26T06:56:48;89.13;;;27.73;;
53652;SDS011;39553;52.954;5.932;2023-01-26T06:59:14;102.13;;;25.48;;
53652;SDS011;39553;52.954;5.932;2023-01-26T07:01:41;76.72;;;24.67;;
53652;SDS011;39553;52.954;5.932;2023-01-26T07:04:09;80.13;;;22.67;;
53652;SDS011;39553;52.954;5.932;2023-01-26T07:06:35;64.60;;;22.25;;
53652;SDS011;39553;52.954;5.932;2023-01-26T07:09:01;65.00;;;20.45;;
53652;SDS011;39553;52.954;5.932;2023-01-26T07:11:27;74.32;;;19.33;;
53652;SDS011;39553;52.954;5.932;2023-01-26T07:13:54;71.47;;;20.25;;
53652;SDS011;39553;52.954;5.932;2023-01-26T07:16:21;59.33;;;14.57;;
53652;SDS011;39553;52.954;5.932;2023-01-26T07:18:46;61.83;;;12.40;;
53652;SDS011;39553;52.954;5.932;2023-01-26T07:21:16;50.10;;;12.05;;
53652;SDS011;39553;52.954;5.932;2023-01-26T07:23:43;42.17;;;8.82;;
53652;SDS011;39553;52.954;5.932;2023-01-26T07:26:09;57.65;;;9.30;;
53652;SDS011;39553;52.954;5.932;2023-01-26T07:28:35;32.30;;;7.68;;
53652;SDS011;39553;52.954;5.932;2023-01-26T07:31:01;56.63;;;9.30;;
53652;SDS011;39553;52.954;5.932;2023-01-26T07:33:28;31.55;;;7.38;;
53652;SDS011;39553;52.954;5.932;2023-01-26T07:35:55;47.65;;;7.75;;
53652;SDS011;39553;52.954;5.932;2023-01-26T07:38:21;39.25;;;6.85;;
53652;SDS011;39553;52.954;5.932;2023-01-26T07:40:47;49.38;;;7.18;;
53652;SDS011;39553;52.954;5.932;2023-01-26T07:43:14;28.02;;;6.30;;
53652;SDS011;39553;52.954;5.932;2023-01-26T07:45:44;45.05;;;6.05;;
53652;SDS011;39553;52.954;5.932;2023-01-26T07:48:11;36.80;;;6.40;;
53652;SDS011;39553;52.954;5.932;2023-01-26T07:50:36;43.15;;;6.85;;
53652;SDS011;39553;52.954;5.932;2023-01-26T07:53:02;36.42;;;5.80;;
53652;SDS011;39553;52.954;5.932;2023-01-26T07:55:28;47.80;;;5.78;;
53652;SDS011;39553;52.954;5.932;2023-01-26T07:57:53;35.20;;;6.05;;
53652;SDS011;39553;52.954;5.932;2023-01-26T08:00:19;43.45;;;6.90;;
53652;SDS011;39553;52.954;5.932;2023-01-26T08:02:48;29.17;;;5.78;;
53652;SDS011;39553;52.954;5.932;2023-01-26T08:05:15;32.10;;;5.88;;
53652;SDS011;39553;52.954;5.932;2023-01-26T08:07:40;32.47;;;5.10;;
53652;SDS011;39553;52.954;5.932;2023-01-26T08:10:06;28.00;;;6.03;;
53652;SDS011;39553;52.954;5.932;2023-01-26T08:12:34;32.85;;;5.72;;
53652;SDS011;39553;52.954;5.932;2023-01-26T08:15:00;33.65;;;5.68;;
53652;SDS011;39553;52.954;5.932;2023-01-26T08:17:27;38.10;;;7.35;;
53652;SDS011;39553;52.954;5.932;2023-01-26T08:19:54;35.97;;;5.97;;
53652;SDS011;39553;52.954;5.932;2023-01-26T08:22:19;35.72;;;5.30;;
53652;SDS011;39553;52.954;5.932;2023-01-26T08:24:45;58.42;;;7.00;;
53652;SDS011;39553;52.954;5.932;2023-01-26T08:27:11;34.42;;;5.97;;
53652;SDS011;39553;52.954;5.932;2023-01-26T08:29:36;30.83;;;6.55;;
53652;SDS011;39553;52.954;5.932;2023-01-26T08:32:05;32.20;;;5.65;;
53652;SDS011;39553;52.954;5.932;2023-01-26T08:34:32;37.90;;;5.63;;
53652;SDS011;39553;52.954;5.932;2023-01-26T08:36:57;39.38;;;6.32;;
53652;SDS011;39553;52.954;5.932;2023-01-26T08:39:23;33.78;;;6.32;;
53652;SDS011;39553;52.954;5.932;2023-01-26T08:41:49;29.98;;;6.40;;
53652;SDS011;39553;52.954;5.932;2023-01-26T08:44:15;40.35;;;5.70;;
53652;SDS011;39553;52.954;5.932;2023-01-26T08:46:42;31.40;;;5.63;;
53652;SDS011;39553;52.954;5.932;2023-01-26T08:49:08;36.42;;;6.57;;
53652;SDS011;39553;52.954;5.932;2023-01-26T08:51:34;40.67;;;6.35;;
53652;SDS011;39553;52.954;5.932;2023-01-26T08:53:59;40.70;;;6.72;;
53652;SDS011;39553;52.954;5.932;2023-01-26T08:56:25;39.28;;;6.05;;
53652;SDS011;39553;52.954;5.932;2023-01-26T08:58:51;31.30;;;5.65;;
53652;SDS011;39553;52.954;5.932;2023-01-26T09:01:16;37.72;;;5.90;;
53652;SDS011;39553;52.954;5.932;2023-01-26T09:03:42;22.00;;;5.32;;
53652;SDS011;39553;52.954;5.932;2023-01-26T09:06:09;28.88;;;5.90;;
53652;SDS011;39553;52.954;5.932;2023-01-26T09:08:37;29.92;;;4.95;;
53652;SDS011;39553;52.954;5.932;2023-01-26T09:11:06;33.72;;;6.70;;
53652;SDS011;39553;52.954;5.932;2023-01-26T09:13:33;30.40;;;6.45;;
53652;SDS011;39553;52.954;5.932;2023-01-26T09:16:02;34.40;;;7.30;;
53652;SDS011;39553;52.954;5.932;2023-01-26T09:18:29;23.42;;;4.70;;
53652;SDS011;39553;52.954;5.932;2023-01-26T09:20:54;30.42;;;5.70;;
53652;SDS011;39553;52.954;5.932;2023-01-26T09:23:27;35.78;;;6.85;;
53652;SDS011;39553;52.954;5.932;2023-01-26T09:25:53;20.10;;;5.18;;
53652;SDS011;39553;52.954;5.932;2023-01-26T09:28:18;25.40;;;4.32;;
53652;SDS011;39553;52.954;5.932;2023-01-26T09:30:44;29.35;;;5.22;;
53652;SDS011;39553;52.954;5.932;2023-01-26T09:33:10;35.17;;;5.15;;
53652;SDS011;39553;52.954;5.932;2023-01-26T09:35:35;24.10;;;5.40;;
53652;SDS011;39553;52.954;5.932;2023-01-26T09:38:01;35.45;;;4.97;;
53652;SDS011;39553;52.954;5.932;2023-01-26T09:40:39;19.85;;;4.28;;
53652;SDS011;39553;52.954;5.932;2023-01-26T09:51:19;27.38;;;4.88;;
53652;SDS011;39553;52.954;5.932;2023-01-26T09:54:18;32.38;;;6.03;;
53652;SDS011;39553;52.954;5.932;2023-01-26T09:56:56;30.33;;;5.05;;
53652;SDS011;39553;52.954;5.932;2023-01-26T09:59:37;25.48;;;5.35;;
53652;SDS011;39553;52.954;5.932;2023-01-26T10:04:36;32.35;;;5.82;;
53652;SDS011;39553;52.954;5.932;2023-01-26T10:07:10;21.63;;;4.32;;
53652;SDS011;39553;52.954;5.932;2023-01-26T10:09:38;29.75;;;4.50;;
53652;SDS011;39553;52.954;5.932;2023-01-26T10:12:07;17.67;;;4.22;;
53652;SDS011;39553;52.954;5.932;2023-01-26T10:17:57;23.08;;;4.50;;
53652;SDS011;39553;52.954;5.932;2023-01-26T10:20:28;25.73;;;4.35;;
53652;SDS011;39553;52.954;5.932;2023-01-26T10:23:05;20.25;;;4.00;;
53652;SDS011;39553;52.954;5.932;2023-01-26T10:25:38;23.05;;;4.43;;
53652;SDS011;39553;52.954;5.932;2023-01-26T10:28:23;27.05;;;3.65;;
53652;SDS011;39553;52.954;5.932;2023-01-26T10:30:52;21.80;;;3.67;;
53652;SDS011;39553;52.954;5.932;2023-01-26T10:33:30;28.02;;;4.22;;
53652;SDS011;39553;52.954;5.932;2023-01-26T10:36:03;21.15;;;4.20;;
53652;SDS011;39553;52.954;5.932;2023-01-26T10:41:18;16.33;;;4.07;;
53652;SDS011;39553;52.954;5.932;2023-01-26T10:43:56;17.67;;;3.55;;
53652;SDS011;39553;52.954;5.932;2023-01-26T10:46:35;15.70;;;3.17;;
53652;SDS011;39553;52.954;5.932;2023-01-26T10:55:09;19.13;;;4.72;;
53652;SDS011;39553;52.954;5.932;2023-01-26T10:57:37;17.48;;;3.63;;
53652;SDS011;39553;52.954;5.932;2023-01-26T11:00:08;15.68;;;3.80;;
53652;SDS011;39553;52.954;5.932;2023-01-26T11:02:49;18.25;;;3.15;;
53652;SDS011;39553;52.954;5.932;2023-01-26T11:05:20;18.30;;;3.45;;
53652;SDS011;39553;52.954;5.932;2023-01-26T11:07:50;22.50;;;4.05;;
53652;SDS011;39553;52.954;5.932;2023-01-26T11:10:37;23.92;;;3.70;;
53652;SDS011;39553;52.954;5.932;2023-01-26T11:13:16;13.50;;;2.85;;
53652;SDS011;39553;52.954;5.932;2023-01-26T11:15:47;11.90;;;3.58;;
53652;SDS011;39553;52.954;5.932;2023-01-26T11:18:21;20.58;;;3.40;;
53652;SDS011;39553;52.954;5.932;2023-01-26T11:21:12;12.85;;;3.45;;
53652;SDS011;39553;52.954;5.932;2023-01-26T11:23:57;18.33;;;3.30;;
53652;SDS011;39553;52.954;5.932;2023-01-26T11:32:25;12.75;;;3.03;;
53652;SDS011;39553;52.954;5.932;2023-01-26T11:35:38;11.95;;;2.30;;
53652;SDS011;39553;52.954;5.932;2023-01-26T11:40:44;14.30;;;2.05;;
53652;SDS011;39553;52.954;5.932;2023-01-26T11:50:56;9.15;;;2.42;;
53652;SDS011;39553;52.954;5.932;2023-01-26T12:01:50;15.10;;;2.28;;
53652;SDS011;39553;52.954;5.932;2023-01-26T12:04:22;11.52;;;2.67;;
53652;SDS011;39553;52.954;5.932;2023-01-26T12:06:49;18.45;;;3.03;;
53652;SDS011;39553;52.954;5.932;2023-01-26T12:09:27;16.90;;;2.80;;
53652;SDS011;39553;52.954;5.932;2023-01-26T12:15:02;14.85;;;2.55;;
53652;SDS011;39553;52.954;5.932;2023-01-26T12:17:43;8.05;;;2.25;;
53652;SDS011;39553;52.954;5.932;2023-01-26T12:23:24;14.98;;;2.75;;
53652;SDS011;39553;52.954;5.932;2023-01-26T12:26:02;20.00;;;3.70;;
53652;SDS011;39553;52.954;5.932;2023-01-26T12:31:51;17.80;;;2.73;;
53652;SDS011;39553;52.954;5.932;2023-01-26T12:34:32;15.20;;;3.85;;
53652;SDS011;39553;52.954;5.932;2023-01-26T12:45:44;13.50;;;3.10;;
53652;SDS011;39553;52.954;5.932;2023-01-26T12:48:16;20.25;;;4.45;;
53652;SDS011;39553;52.954;5.932;2023-01-26T12:51:03;12.05;;;2.88;;
53652;SDS011;39553;52.954;5.932;2023-01-26T12:56:33;11.75;;;3.88;;
53652;SDS011;39553;52.954;5.932;2023-01-26T12:59:14;12.10;;;2.95;;
53652;SDS011;39553;52.954;5.932;2023-01-26T13:01:49;11.48;;;2.22;;
53652;SDS011;39553;52.954;5.932;2023-01-26T13:04:14;10.80;;;2.53;;
53652;SDS011;39553;52.954;5.932;2023-01-26T13:06:41;15.63;;;2.38;;
53652;SDS011;39553;52.954;5.932;2023-01-26T13:09:23;8.18;;;1.98;;
53652;SDS011;39553;52.954;5.932;2023-01-26T13:11:54;14.98;;;2.63;;
53652;SDS011;39553;52.954;5.932;2023-01-26T13:14:32;16.00;;;2.47;;
53652;SDS011;39553;52.954;5.932;2023-01-26T13:30:55;12.57;;;1.95;;
53652;SDS011;39553;52.954;5.932;2023-01-26T13:35:38;10.75;;;1.77;;
53652;SDS011;39553;52.954;5.932;2023-01-26T13:38:10;8.55;;;2.10;;
53652;SDS011;39553;52.954;5.932;2023-01-26T13:40:51;12.10;;;2.25;;
53652;SDS011;39553;52.954;5.932;2023-01-26T13:51:28;9.15;;;1.90;;
53652;SDS011;39553;52.954;5.932;2023-01-26T13:54:03;5.57;;;1.60;;
53652;SDS011;39553;52.954;5.932;2023-01-26T13:56:40;12.55;;;2.00;;
53652;SDS011;39553;52.954;5.932;2023-01-26T13:59:17;12.63;;;2.47;;
53652;SDS011;39553;52.954;5.932;2023-01-26T14:01:45;6.47;;;1.63;;
53652;SDS011;39553;52.954;5.932;2023-01-26T14:09:27;8.77;;;1.73;;
53652;SDS011;39553;52.954;5.932;2023-01-26T14:12:03;6.28;;;1.35;;
53652;SDS011;39553;52.954;5.932;2023-01-26T14:14:34;7.93;;;1.73;;
53652;SDS011;39553;52.954;5.932;2023-01-26T14:17:08;14.23;;;2.00;;
53652;SDS011;39553;52.954;5.932;2023-01-26T14:19:52;5.30;;;1.40;;
53652;SDS011;39553;52.954;5.932;2023-01-26T14:22:18;7.13;;;1.30;;
53652;SDS011;39553;52.954;5.932;2023-01-26T14:24:46;8.57;;;1.70;;
53652;SDS011;39553;52.954;5.932;2023-01-26T14:27:24;7.95;;;1.98;;
53652;SDS011;39553;52.954;5.932;2023-01-26T14:29:51;9.82;;;2.00;;
53652;SDS011;39553;52.954;5.932;2023-01-26T14:32:17;7.60;;;1.98;;
53652;SDS011;39553;52.954;5.932;2023-01-26T14:34:54;15.20;;;1.95;;
53652;SDS011;39553;52.954;5.932;2023-01-26T14:37:23;10.60;;;2.08;;
53652;SDS011;39553;52.954;5.932;2023-01-26T14:40:08;9.68;;;1.98;;
53652;SDS011;39553;52.954;5.932;2023-01-26T14:42:48;13.73;;;2.60;;
53652;SDS011;39553;52.954;5.932;2023-01-26T14:45:17;10.63;;;2.33;;
53652;SDS011;39553;52.954;5.932;2023-01-26T14:47:52;10.45;;;1.98;;
53652;SDS011;39553;52.954;5.932;2023-01-26T14:50:25;8.40;;;1.60;;
53652;SDS011;39553;52.954;5.932;2023-01-26T14:52:54;8.38;;;1.90;;
53652;SDS011;39553;52.954;5.932;2023-01-26T14:55:54;13.32;;;1.95;;
53652;SDS011;39553;52.954;5.932;2023-01-26T14:58:14;12.70;;;2.65;;
53652;SDS011;39553;52.954;5.932;2023-01-26T15:00:55;11.55;;;2.10;;
53652;SDS011;39553;52.954;5.932;2023-01-26T15:03:28;12.05;;;2.22;;
53652;SDS011;39553;52.954;5.932;2023-01-26T15:08:41;19.20;;;2.40;;
53652;SDS011;39553;52.954;5.932;2023-01-26T15:11:30;10.27;;;2.38;;
53652;SDS011;39553;52.954;5.932;2023-01-26T15:14:32;9.88;;;2.60;;
53652;SDS011;39553;52.954;5.932;2023-01-26T15:19:54;13.85;;;3.00;;
53652;SDS011;39553;52.954;5.932;2023-01-26T15:22:21;11.02;;;2.70;;
53652;SDS011;39553;52.954;5.932;2023-01-26T15:27:54;11.77;;;2.33;;
53652;SDS011;39553;52.954;5.932;2023-01-26T15:30:28;12.18;;;2.22;;
53652;SDS011;39553;52.954;5.932;2023-01-26T15:32:57;13.07;;;2.78;;
53652;SDS011;39553;52.954;5.932;2023-01-26T15:35:24;15.00;;;3.13;;
53652;SDS011;39553;52.954;5.932;2023-01-26T15:38:08;12.75;;;2.55;;
53652;SDS011;39553;52.954;5.932;2023-01-26T15:40:35;10.23;;;3.13;;
53652;SDS011;39553;52.954;5.932;2023-01-26T15:43:12;15.40;;;3.33;;
53652;SDS011;39553;52.954;5.932;2023-01-26T15:45:40;16.92;;;3.75;;
53652;SDS011;39553;52.954;5.932;2023-01-26T15:48:10;16.35;;;2.88;;
53652;SDS011;39553;52.954;5.932;2023-01-26T15:50:40;10.48;;;2.90;;
53652;SDS011;39553;52.954;5.932;2023-01-26T15:53:08;17.42;;;2.92;;
53652;SDS011;39553;52.954;5.932;2023-01-26T15:55:40;14.20;;;3.05;;
53652;SDS011;39553;52.954;5.932;2023-01-26T15:58:08;19.25;;;2.90;;
53652;SDS011;39553;52.954;5.932;2023-01-26T16:00:34;16.45;;;2.90;;
53652;SDS011;39553;52.954;5.932;2023-01-26T16:03:02;17.63;;;2.80;;
53652;SDS011;39553;52.954;5.932;2023-01-26T16:05:33;13.68;;;3.30;;
53652;SDS011;39553;52.954;5.932;2023-01-26T16:07:59;14.43;;;3.17;;
53652;SDS011;39553;52.954;5.932;2023-01-26T16:10:25;20.10;;;4.35;;
53652;SDS011;39553;52.954;5.932;2023-01-26T16:12:51;11.52;;;3.03;;
53652;SDS011;39553;52.954;5.932;2023-01-26T16:18:00;12.35;;;2.38;;
53652;SDS011;39553;52.954;5.932;2023-01-26T16:20:27;10.23;;;2.50;;
53652;SDS011;39553;52.954;5.932;2023-01-26T16:22:55;12.70;;;2.40;;
53652;SDS011;39553;52.954;5.932;2023-01-26T16:27:51;11.95;;;2.58;;
53652;SDS011;39553;52.954;5.932;2023-01-26T16:30:17;10.95;;;2.47;;
53652;SDS011;39553;52.954;5.932;2023-01-26T16:32:43;11.80;;;2.65;;
53652;SDS011;39553;52.954;5.932;2023-01-26T16:35:17;17.88;;;2.63;;
53652;SDS011;39553;52.954;5.932;2023-01-26T16:40:11;13.18;;;3.40;;